Time;durP1;ratioP1;P1;durP2;ratioP2;P2;SDS_P1;SDS_P2;PMS_P1;PMS_P2;Temp;Humidity;BMP_temperature;BMP_pressure;BME280_temperature;BME280_humidity;BME280_pressure;Samples;Min_cycle;Max_cycle;Signal;HPM_P1;HPM_P2
2021/07/08 00:02:03;;;;;;;2.03;1.90;;;29.10;49.20;;;;;;5010442;28;20451;-74
2021/07/08 00:04:31;;;;;;;2.30;2.20;;;29.00;49.30;;;;;;5019872;28;20418;-74
2021/07/08 00:06:59;;;;;;;2.20;2.00;;;29.00;49.40;;;;;;5008630;28;20435;-74
2021/07/08 00:09:27;;;;;;;2.33;2.20;;;29.00;49.40;;;;;;5007182;28;20515;-74
2021/07/08 00:11:56;;;;;;;2.50;2.30;;;29.00;49.30;;;;;;5006563;28;20443;-74
2021/07/08 00:14:24;;;;;;;3.43;2.20;;;29.00;49.40;;;;;;5006814;28;20430;-74
2021/07/08 00:16:52;;;;;;;2.40;2.20;;;29.00;49.30;;;;;;5006810;28;20444;-74
2021/07/08 00:19:20;;;;;;;2.00;1.90;;;29.00;49.40;;;;;;5006515;28;20434;-74
2021/07/08 00:21:48;;;;;;;3.00;2.10;;;28.90;49.30;;;;;;5006446;28;20468;-74
2021/07/08 00:24:16;;;;;;;2.30;2.10;;;28.90;49.40;;;;;;5006030;28;20502;-75
2021/07/08 00:26:44;;;;;;;3.47;2.07;;;28.90;49.60;;;;;;5006382;28;20448;-74
2021/07/08 00:29:13;;;;;;;1.90;1.80;;;28.90;49.50;;;;;;5006339;28;20517;-74
2021/07/08 00:31:41;;;;;;;2.53;2.33;;;28.90;49.60;;;;;;5006364;28;20476;-74
2021/07/08 00:34:09;;;;;;;2.30;2.20;;;28.80;49.60;;;;;;5006598;28;20422;-74
2021/07/08 00:36:37;;;;;;;4.60;2.10;;;28.90;49.70;;;;;;5006741;28;20439;-74
2021/07/08 00:39:05;;;;;;;8.17;2.43;;;28.90;49.60;;;;;;5006282;28;20488;-74
2021/07/08 00:41:33;;;;;;;3.33;2.30;;;28.90;49.60;;;;;;5006417;28;20575;-74
2021/07/08 00:44:01;;;;;;;2.70;1.80;;;28.80;49.70;;;;;;5006528;28;20465;-74
2021/07/08 00:46:30;;;;;;;3.13;2.30;;;28.90;49.60;;;;;;5006340;28;20505;-74
2021/07/08 00:48:58;;;;;;;2.00;1.90;;;28.90;49.40;;;;;;5005671;28;20468;-74
2021/07/08 00:51:26;;;;;;;1.97;1.83;;;28.80;49.40;;;;;;5005854;28;20446;-74
2021/07/08 00:53:54;;;;;;;3.53;2.27;;;28.90;49.60;;;;;;5005860;28;20460;-74
2021/07/08 00:56:22;;;;;;;4.30;1.90;;;28.90;49.50;;;;;;5006178;28;20452;-74
2021/07/08 00:59:02;;;;;;;2.50;2.30;;;28.80;49.40;;;;;;5005956;28;20447;-74
2021/07/08 01:01:31;;;;;;;3.00;2.10;;;28.90;49.70;;;;;;5005701;28;20458;-74
2021/07/08 01:04:02;;;;;;;2.43;2.10;;;28.80;49.50;;;;;;5024058;28;20464;-74
2021/07/08 01:06:30;;;;;;;2.20;2.00;;;28.90;49.50;;;;;;5025981;28;20432;-74
2021/07/08 01:08:58;;;;;;;18.23;2.30;;;28.90;49.70;;;;;;5025389;28;20487;-74
2021/07/08 01:11:27;;;;;;;2.23;2.10;;;28.80;49.60;;;;;;5025061;28;20497;-74
2021/07/08 01:13:55;;;;;;;2.40;2.10;;;28.80;49.40;;;;;;5025282;28;20534;-74
2021/07/08 01:16:24;;;;;;;2.20;2.00;;;28.80;49.50;;;;;;5024655;28;20432;-75
2021/07/08 01:18:54;;;;;;;2.00;1.87;;;28.80;49.80;;;;;;5025011;28;20471;-74
2021/07/08 01:21:28;;;;;;;2.80;2.10;;;28.80;49.60;;;;;;5025394;28;20443;-74
2021/07/08 01:23:56;;;;;;;3.60;2.17;;;28.80;49.50;;;;;;5025445;28;20471;-74
2021/07/08 01:26:24;;;;;;;7.20;2.10;;;28.80;49.80;;;;;;5025127;28;20413;-74
2021/07/08 01:28:53;;;;;;;2.27;2.13;;;28.80;49.70;;;;;;5028271;28;20398;-74
2021/07/08 01:31:21;;;;;;;3.93;2.20;;;28.80;49.80;;;;;;5023775;28;20422;-74
2021/07/08 01:33:49;;;;;;;2.10;1.90;;;28.80;49.80;;;;;;5024284;28;20469;-74
2021/07/08 01:36:17;;;;;;;2.77;2.40;;;28.80;49.60;;;;;;5024295;28;20440;-74
2021/07/08 01:38:46;;;;;;;2.13;2.00;;;28.70;49.70;;;;;;5024639;28;20442;-74
2021/07/08 01:41:15;;;;;;;2.17;2.00;;;28.70;49.80;;;;;;5024344;28;20447;-74
2021/07/08 01:43:43;;;;;;;1.97;1.87;;;28.80;49.80;;;;;;5025326;28;20478;-74
2021/07/08 01:46:12;;;;;;;2.43;2.07;;;28.80;50.00;;;;;;5024087;28;20450;-74
2021/07/08 01:48:40;;;;;;;5.20;2.30;;;28.80;49.80;;;;;;5024212;28;20520;-74
2021/07/08 01:51:17;;;;;;;2.20;2.03;;;28.80;49.90;;;;;;5024536;28;20510;-74
2021/07/08 01:53:46;;;;;;;1.83;1.73;;;28.80;49.90;;;;;;5025158;28;20456;-74
2021/07/08 01:56:14;;;;;;;2.50;2.30;;;28.70;50.00;;;;;;5024697;28;20460;-74
2021/07/08 01:58:42;;;;;;;2.10;2.00;;;28.80;50.00;;;;;;5024690;28;20663;-75
2021/07/08 02:01:10;;;;;;;2.13;2.03;;;28.70;49.80;;;;;;5022313;28;20424;-77
2021/07/08 02:03:38;;;;;;;1.90;1.80;;;28.70;50.00;;;;;;5020622;28;20439;-75
2021/07/08 02:06:06;;;;;;;3.73;1.90;;;28.70;49.90;;;;;;5032054;28;20407;-75
2021/07/08 02:08:36;;;;;;;2.07;1.97;;;28.70;50.10;;;;;;5028643;28;20406;-75
2021/07/08 02:11:05;;;;;;;2.13;2.03;;;28.60;50.00;;;;;;5009035;28;20458;-76
2021/07/08 02:13:33;;;;;;;5.03;2.00;;;28.70;50.10;;;;;;5024701;28;20447;-75
2021/07/08 02:16:01;;;;;;;2.57;2.17;;;28.60;50.00;;;;;;5016053;28;20427;-75
2021/07/08 02:18:29;;;;;;;1.93;1.83;;;28.50;50.30;;;;;;5027582;28;20444;-75
2021/07/08 02:20:57;;;;;;;1.90;1.80;;;28.50;50.30;;;;;;5025680;28;20432;-75
2021/07/08 02:23:25;;;;;;;2.20;2.10;;;28.50;50.40;;;;;;5024655;28;20519;-75
2021/07/08 02:25:53;;;;;;;2.20;2.10;;;28.40;50.40;;;;;;5024255;28;20455;-75
2021/07/08 02:28:22;;;;;;;2.77;1.90;;;28.50;50.60;;;;;;5025988;28;20447;-74
2021/07/08 02:30:50;;;;;;;2.10;2.00;;;28.50;50.60;;;;;;5028529;28;20554;-75
2021/07/08 02:33:18;;;;;;;2.20;2.10;;;28.50;50.70;;;;;;5028096;28;20425;-75
2021/07/08 02:35:46;;;;;;;2.10;2.00;;;28.40;50.50;;;;;;5028499;28;20443;-75
2021/07/08 02:38:14;;;;;;;4.00;2.00;;;28.40;50.50;;;;;;5027948;28;20413;-75
2021/07/08 02:40:43;;;;;;;1.80;1.70;;;28.40;50.60;;;;;;5028185;28;20437;-75
2021/07/08 02:43:11;;;;;;;2.53;2.33;;;28.40;50.60;;;;;;5027818;28;20547;-75
2021/07/08 02:45:41;;;;;;;6.10;1.83;;;28.50;50.80;;;;;;5027915;28;20521;-75
2021/07/08 02:48:10;;;;;;;2.50;2.30;;;28.50;50.60;;;;;;5028077;28;20493;-75
2021/07/08 02:50:41;;;;;;;2.23;2.13;;;28.50;50.70;;;;;;5027803;28;20484;-75
2021/07/08 02:53:09;;;;;;;2.23;2.10;;;28.40;50.60;;;;;;5027888;28;20417;-75
2021/07/08 02:55:37;;;;;;;2.00;1.90;;;28.50;50.70;;;;;;5027301;28;20491;-74
2021/07/08 02:58:05;;;;;;;2.27;2.00;;;28.50;50.60;;;;;;5027987;28;20472;-74
2021/07/08 03:00:33;;;;;;;2.13;2.03;;;28.50;50.70;;;;;;5027782;28;20410;-74
2021/07/08 03:03:03;;;;;;;2.40;2.30;;;28.50;50.60;;;;;;5027185;28;20414;-74
2021/07/08 03:05:31;;;;;;;2.20;2.10;;;28.40;50.60;;;;;;5009168;28;20444;-74
2021/07/08 03:07:59;;;;;;;1.93;1.77;;;28.40;50.40;;;;;;5007671;28;20407;-74
2021/07/08 03:10:28;;;;;;;2.10;2.00;;;28.40;50.70;;;;;;5007824;28;20538;-74
2021/07/08 03:12:56;;;;;;;2.67;2.47;;;28.40;50.60;;;;;;5007980;28;20445;-74
2021/07/08 03:15:24;;;;;;;2.43;2.23;;;28.50;50.70;;;;;;5007875;28;20465;-74
2021/07/08 03:17:54;;;;;;;2.10;2.00;;;28.50;50.60;;;;;;5007305;28;20414;-74
2021/07/08 03:20:24;;;;;;;2.00;1.87;;;28.40;50.70;;;;;;5007805;28;20432;-74
2021/07/08 03:22:52;;;;;;;2.13;2.03;;;28.50;50.50;;;;;;5007304;28;20510;-74
2021/07/08 03:25:21;;;;;;;2.20;2.00;;;28.50;50.60;;;;;;5008031;28;20511;-74
2021/07/08 03:27:49;;;;;;;4.00;2.10;;;28.50;50.90;;;;;;5007002;28;20462;-75
2021/07/08 03:30:19;;;;;;;1.83;1.70;;;28.40;50.60;;;;;;5007581;28;20470;-74
2021/07/08 03:32:47;;;;;;;1.90;1.80;;;28.40;50.80;;;;;;5007678;28;20414;-74
2021/07/08 03:35:23;;;;;;;2.33;2.23;;;28.40;50.70;;;;;;5007403;28;20418;-74
2021/07/08 03:37:51;;;;;;;2.33;2.13;;;28.50;50.70;;;;;;5007585;28;20457;-74
2021/07/08 03:40:19;;;;;;;3.83;2.10;;;28.50;50.70;;;;;;5007307;28;20418;-74
2021/07/08 03:42:49;;;;;;;2.67;1.93;;;28.40;50.90;;;;;;5007666;28;20475;-74
2021/07/08 03:45:18;;;;;;;2.57;2.33;;;28.40;50.90;;;;;;5006917;28;20430;-74
2021/07/08 03:47:46;;;;;;;2.40;2.20;;;28.40;50.80;;;;;;5007440;28;20399;-74
2021/07/08 03:50:15;;;;;;;2.03;1.93;;;28.40;51.30;;;;;;5006798;28;20514;-74
2021/07/08 03:52:45;;;;;;;2.20;2.00;;;28.40;50.80;;;;;;5007081;28;20471;-74
2021/07/08 03:55:15;;;;;;;3.13;2.20;;;28.40;50.60;;;;;;5006729;28;20440;-74
2021/07/08 03:57:53;;;;;;;2.20;2.10;;;28.40;50.70;;;;;;5007150;28;20423;-74
2021/07/08 04:00:26;;;;;;;2.10;2.00;;;28.50;50.70;;;;;;5007425;28;20419;-74
2021/07/08 04:02:54;;;;;;;2.47;2.37;;;28.50;50.80;;;;;;5030616;28;20515;-74
2021/07/08 04:05:22;;;;;;;2.03;1.80;;;28.50;50.80;;;;;;5022817;28;20522;-74
2021/07/08 04:07:51;;;;;;;2.03;1.93;;;28.50;50.70;;;;;;5034126;28;20508;-74
2021/07/08 04:10:19;;;;;;;2.20;2.10;;;28.50;50.80;;;;;;5026627;28;20402;-74
2021/07/08 04:12:48;;;;;;;2.17;2.07;;;28.40;50.90;;;;;;5026725;28;20444;-74
2021/07/08 04:15:16;;;;;;;1.80;1.70;;;28.50;50.80;;;;;;5026006;28;20445;-74
2021/07/08 04:17:44;;;;;;;2.27;2.17;;;28.50;50.60;;;;;;5026712;28;20505;-74
2021/07/08 04:20:15;;;;;;;3.63;1.60;;;28.50;50.70;;;;;;5026202;28;20437;-74
2021/07/08 04:22:43;;;;;;;2.23;2.03;;;28.50;50.70;;;;;;5026070;28;20414;-74
2021/07/08 04:25:14;;;;;;;3.80;2.40;;;28.50;50.60;;;;;;5026645;28;20421;-74
2021/07/08 04:27:42;;;;;;;2.00;1.90;;;28.50;50.60;;;;;;5026402;28;20469;-74
2021/07/08 04:30:11;;;;;;;2.40;2.20;;;28.50;50.50;;;;;;5026593;28;20446;-74
2021/07/08 04:32:38;;;;;;;2.10;1.90;;;28.50;50.70;;;;;;5022155;28;20565;-74
2021/07/08 04:35:07;;;;;;;2.20;2.00;;;28.50;50.60;;;;;;5026812;28;20514;-74
2021/07/08 04:37:40;;;;;;;2.80;2.00;;;28.60;50.90;;;;;;5025993;28;20452;-74
2021/07/08 04:40:09;;;;;;;2.00;1.90;;;28.50;50.80;;;;;;5026246;28;20526;-74
2021/07/08 04:42:38;;;;;;;2.70;2.60;;;28.50;50.80;;;;;;5026548;28;20463;-74
2021/07/08 04:45:07;;;;;;;2.43;2.23;;;28.60;50.70;;;;;;5026056;28;20466;-74
2021/07/08 04:47:37;;;;;;;2.17;1.97;;;28.60;50.60;;;;;;5026203;28;20414;-74
2021/07/08 04:50:06;;;;;;;2.33;2.23;;;28.60;50.70;;;;;;5025608;28;20462;-74
2021/07/08 04:52:34;;;;;;;2.20;2.10;;;28.50;50.70;;;;;;5025831;28;20582;-74
2021/07/08 04:55:01;;;;;;;2.10;2.00;;;28.50;50.60;;;;;;5026192;28;20414;-74
2021/07/08 04:57:30;;;;;;;2.07;1.97;;;28.50;50.70;;;;;;5026033;28;20482;-74
2021/07/08 05:00:00;;;;;;;3.37;2.27;;;28.50;50.70;;;;;;5025879;28;20442;-74
2021/07/08 05:02:28;;;;;;;1.97;1.87;;;28.50;50.90;;;;;;5025714;28;20432;-74
2021/07/08 05:04:55;;;;;;;2.23;2.10;;;28.50;50.90;;;;;;5025941;28;20445;-74
2021/07/08 05:07:23;;;;;;;2.23;2.13;;;28.60;50.70;;;;;;5025933;28;20509;-74
2021/07/08 05:09:51;;;;;;;2.23;1.90;;;28.60;50.80;;;;;;5025469;28;20414;-74
2021/07/08 05:12:22;;;;;;;4.30;1.97;;;28.60;50.70;;;;;;5025252;28;20517;-74
2021/07/08 05:14:50;;;;;;;2.30;2.13;;;28.60;50.60;;;;;;5025379;28;20443;-73
2021/07/08 05:17:19;;;;;;;2.00;1.90;;;28.70;50.60;;;;;;5025808;28;20470;-73
2021/07/08 05:19:48;;;;;;;2.10;2.00;;;28.70;50.50;;;;;;5025633;28;20517;-73
2021/07/08 05:22:18;;;;;;;2.50;2.40;;;28.70;50.50;;;;;;5025148;28;20501;-73
2021/07/08 05:24:46;;;;;;;2.90;2.10;;;28.70;50.50;;;;;;5031549;28;20414;-73
2021/07/08 05:27:16;;;;;;;2.30;2.20;;;28.70;50.80;;;;;;5031247;28;20434;-73
2021/07/08 05:29:44;;;;;;;2.80;2.10;;;28.70;50.70;;;;;;5026256;28;20415;-73
2021/07/08 05:32:13;;;;;;;1.97;1.87;;;28.70;50.60;;;;;;5024598;28;20437;-73
2021/07/08 05:34:42;;;;;;;2.20;2.10;;;28.70;50.60;;;;;;5024564;28;20414;-73
2021/07/08 05:37:10;;;;;;;2.97;1.73;;;28.80;50.50;;;;;;5025268;28;20513;-73
2021/07/08 05:39:40;;;;;;;2.13;2.03;;;28.80;50.70;;;;;;5011699;28;20419;-73
2021/07/08 05:42:08;;;;;;;1.87;1.77;;;28.70;50.60;;;;;;5013148;28;20461;-74
2021/07/08 05:44:36;;;;;;;2.20;2.10;;;28.80;50.70;;;;;;5016570;28;20481;-73
2021/07/08 05:47:05;;;;;;;2.00;1.90;;;28.80;50.60;;;;;;5013721;28;20433;-73
2021/07/08 05:49:55;;;;;;;2.40;2.20;;;28.80;50.50;;;;;;5013442;28;20406;-73
2021/07/08 05:52:23;;;;;;;3.23;2.20;;;28.80;50.50;;;;;;5013028;28;20443;-73
2021/07/08 05:54:51;;;;;;;4.93;2.10;;;28.70;50.60;;;;;;5013421;28;20472;-73
2021/07/08 05:57:19;;;;;;;2.37;2.27;;;28.80;50.60;;;;;;5013791;28;20501;-74
2021/07/08 05:59:47;;;;;;;1.70;1.70;;;28.90;50.60;;;;;;5005281;28;20432;-74
2021/07/08 06:02:14;;;;;;;2.97;2.27;;;28.90;50.40;;;;;;5004088;28;20426;-74
2021/07/08 06:04:45;;;;;;;2.20;1.60;;;28.90;50.50;;;;;;5005245;28;20503;-74
2021/07/08 06:07:15;;;;;;;9.13;2.30;;;28.90;50.60;;;;;;5005350;28;20423;-73
2021/07/08 06:09:42;;;;;;;10.20;2.67;;;28.90;50.60;;;;;;5021217;28;20421;-73
2021/07/08 06:12:10;;;;;;;2.33;2.10;;;29.00;50.70;;;;;;5035618;28;20544;-74
2021/07/08 06:14:38;;;;;;;9.70;2.33;;;29.00;50.70;;;;;;5044481;28;20521;-74
2021/07/08 06:17:07;;;;;;;2.30;2.17;;;29.00;50.40;;;;;;5044023;28;20675;-74
2021/07/08 06:19:35;;;;;;;2.40;2.20;;;29.00;50.60;;;;;;5044416;28;20457;-74
2021/07/08 06:22:04;;;;;;;6.67;2.20;;;29.00;50.60;;;;;;5044016;28;20449;-74
2021/07/08 06:24:33;;;;;;;4.40;2.20;;;29.00;50.50;;;;;;5044111;28;20504;-74
2021/07/08 06:27:01;;;;;;;2.40;2.20;;;29.10;50.50;;;;;;5044339;28;20547;-74
2021/07/08 06:29:29;;;;;;;2.43;2.23;;;29.10;50.30;;;;;;5044270;28;20422;-74
2021/07/08 06:31:57;;;;;;;1.80;1.70;;;29.10;50.40;;;;;;5043960;28;20544;-74
2021/07/08 06:34:24;;;;;;;2.10;2.00;;;29.10;50.40;;;;;;5044205;28;20452;-74
2021/07/08 06:36:52;;;;;;;6.83;2.57;;;29.10;50.50;;;;;;5044242;28;20409;-74
2021/07/08 06:39:20;;;;;;;2.30;2.00;;;29.20;50.30;;;;;;5044189;28;20549;-73
2021/07/08 06:41:49;;;;;;;2.50;2.17;;;29.30;50.20;;;;;;5043788;28;20511;-74
2021/07/08 06:44:17;;;;;;;2.20;1.97;;;29.30;50.00;;;;;;5043633;28;20438;-74
2021/07/08 06:46:50;;;;;;;2.60;2.40;;;29.40;49.80;;;;;;5044051;28;20517;-74
2021/07/08 06:49:19;;;;;;;2.80;2.10;;;29.40;49.80;;;;;;5043912;28;20486;-74
2021/07/08 06:51:47;;;;;;;5.13;2.20;;;29.50;49.60;;;;;;5043371;28;20504;-74
2021/07/08 06:54:15;;;;;;;4.40;2.30;;;29.60;49.40;;;;;;5043735;28;20490;-74
2021/07/08 06:56:43;;;;;;;2.03;1.93;;;29.60;49.40;;;;;;5044257;28;20446;-74
2021/07/08 06:59:12;;;;;;;2.90;2.13;;;29.70;49.40;;;;;;5043810;28;20512;-74
2021/07/08 07:01:40;;;;;;;3.90;2.20;;;29.60;49.30;;;;;;5043455;28;20448;-74
2021/07/08 07:04:08;;;;;;;4.10;2.30;;;29.60;49.30;;;;;;5036012;28;20430;-73
2021/07/08 07:06:36;;;;;;;3.03;2.07;;;29.70;49.30;;;;;;5024258;28;20406;-74
2021/07/08 07:09:04;;;;;;;2.60;2.03;;;29.70;49.30;;;;;;5023872;28;20439;-73
2021/07/08 07:11:32;;;;;;;2.03;1.93;;;29.70;49.10;;;;;;5023918;28;20443;-74
2021/07/08 07:14:00;;;;;;;2.00;1.87;;;29.70;48.90;;;;;;5025710;28;20591;-74
2021/07/08 07:16:29;;;;;;;4.83;1.90;;;29.80;49.20;;;;;;5027526;28;20500;-74
2021/07/08 07:18:57;;;;;;;5.70;1.87;;;29.80;48.90;;;;;;5027580;28;20522;-73
2021/07/08 07:21:25;;;;;;;2.80;2.20;;;29.90;48.80;;;;;;5014201;28;20542;-74
2021/07/08 07:23:53;;;;;;;3.13;2.23;;;29.90;48.80;;;;;;5025662;28;20524;-73
2021/07/08 07:26:21;;;;;;;2.23;2.13;;;30.00;48.90;;;;;;5024950;28;20456;-74
2021/07/08 07:28:49;;;;;;;2.63;2.10;;;30.00;49.10;;;;;;5012509;28;20521;-74
2021/07/08 07:31:17;;;;;;;6.80;2.47;;;30.00;49.00;;;;;;5012287;28;20547;-74
2021/07/08 07:33:47;;;;;;;3.03;2.17;;;30.10;49.00;;;;;;5012631;28;20450;-76
2021/07/08 07:36:14;;;;;;;4.43;2.10;;;30.10;48.90;;;;;;5013698;28;20443;-75
2021/07/08 07:38:43;;;;;;;5.73;2.47;;;30.20;49.40;;;;;;5016286;28;20423;-74
2021/07/08 07:41:11;;;;;;;8.60;2.23;;;30.20;49.30;;;;;;5012295;28;20539;-74
2021/07/08 07:43:39;;;;;;;2.17;2.07;;;30.30;49.40;;;;;;5010788;28;20473;-76
2021/07/08 07:46:06;;;;;;;2.20;2.00;;;30.30;49.70;;;;;;5019387;28;20538;-76
2021/07/08 07:48:34;;;;;;;5.53;2.40;;;30.30;49.60;;;;;;5022281;28;20466;-75
2021/07/08 07:51:04;;;;;;;2.90;2.20;;;30.40;49.60;;;;;;5016935;28;20407;-75
2021/07/08 07:53:32;;;;;;;3.87;2.60;;;30.40;49.60;;;;;;5021887;28;20500;-76
2021/07/08 07:56:00;;;;;;;3.37;2.30;;;30.50;49.50;;;;;;5017811;28;20462;-75
2021/07/08 07:58:30;;;;;;;10.13;2.60;;;30.50;49.60;;;;;;5021923;28;20451;-75
2021/07/08 08:00:59;;;;;;;4.30;2.10;;;30.60;49.50;;;;;;5016332;28;20517;-76
2021/07/08 08:03:28;;;;;;;6.40;2.53;;;30.60;49.40;;;;;;5015439;28;20448;-78
2021/07/08 08:08:27;;;;;;;4.20;2.30;;;30.70;49.20;;;;;;5012218;28;20505;-75
2021/07/08 08:08:46;;;;;;;2.60;2.40;;;30.70;49.60;;;;;;5013522;28;20537;-77
2021/07/08 08:11:14;;;;;;;2.07;1.97;;;30.70;49.20;;;;;;5018615;28;20443;-75
2021/07/08 08:13:42;;;;;;;7.90;2.27;;;30.70;49.30;;;;;;5011340;28;20476;-75
2021/07/08 08:16:10;;;;;;;1.90;1.80;;;30.80;49.30;;;;;;5014717;28;20529;-76
2021/07/08 08:18:40;;;;;;;4.40;2.23;;;30.80;49.20;;;;;;5014124;28;20475;-74
2021/07/08 08:21:13;;;;;;;6.17;2.43;;;30.90;49.20;;;;;;5013970;28;20447;-76
2021/07/08 08:23:41;;;;;;;4.43;2.50;;;30.90;49.20;;;;;;5016753;28;20432;-76
2021/07/08 08:26:11;;;;;;;5.00;2.33;;;30.90;49.20;;;;;;5017155;28;20452;-79
2021/07/08 08:28:39;;;;;;;2.90;2.07;;;31.00;49.10;;;;;;5009517;28;20476;-76
2021/07/08 08:31:07;;;;;;;4.87;2.10;;;31.00;49.00;;;;;;5008575;28;20460;-77
2021/07/08 08:33:35;;;;;;;6.47;2.40;;;31.00;49.10;;;;;;5010819;28;20494;-78
2021/07/08 08:36:03;;;;;;;2.43;1.93;;;31.00;48.70;;;;;;5010132;28;20523;-75
2021/07/08 08:38:31;;;;;;;2.97;2.07;;;31.10;48.40;;;;;;5008188;28;20484;-74
2021/07/08 08:40:59;;;;;;;9.53;2.23;;;31.10;48.70;;;;;;5022250;28;20486;-76
2021/07/08 08:43:29;;;;;;;6.93;2.00;;;31.20;48.50;;;;;;5023878;28;20460;-78
2021/07/08 08:45:57;;;;;;;4.97;2.30;;;31.20;48.50;;;;;;5020110;28;20544;-76
2021/07/08 08:48:25;;;;;;;8.27;2.40;;;31.30;48.40;;;;;;5012407;28;20528;-77
2021/07/08 08:50:53;;;;;;;9.70;2.63;;;31.40;48.30;;;;;;5020859;28;20452;-75
2021/07/08 08:53:25;;;;;;;4.20;2.03;;;31.40;48.20;;;;;;5014266;28;20470;-74
2021/07/08 08:55:53;;;;;;;6.10;2.17;;;31.50;48.10;;;;;;5015839;28;20436;-74
2021/07/08 08:58:22;;;;;;;4.30;2.07;;;31.40;48.10;;;;;;5016870;28;20447;-78
2021/07/08 09:00:52;;;;;;;3.70;1.90;;;31.40;48.10;;;;;;5013282;28;20498;-76
2021/07/08 09:03:25;;;;;;;2.77;2.57;;;31.50;48.10;;;;;;5012742;28;20462;-77
2021/07/08 09:06:01;;;;;;;2.40;2.10;;;31.40;47.90;;;;;;5020468;28;20456;-76
2021/07/08 09:08:29;;;;;;;3.17;2.30;;;31.60;48.00;;;;;;5013247;28;20456;-75
2021/07/08 09:11:14;;;;;;;2.43;1.87;;;31.50;47.90;;;;;;5005074;28;20451;-75
2021/07/08 09:13:47;;;;;;;6.13;2.13;;;31.60;47.80;;;;;;5018159;28;20457;-74
2021/07/08 09:16:17;;;;;;;3.33;2.10;;;31.60;47.70;;;;;;5011722;28;20460;-73
2021/07/08 09:18:55;;;;;;;4.47;1.83;;;31.60;47.70;;;;;;5013321;28;20479;-75
2021/07/08 09:21:23;;;;;;;4.40;1.83;;;31.70;47.60;;;;;;5011020;28;20539;-74
2021/07/08 09:24:12;;;;;;;3.87;1.90;;;31.80;47.70;;;;;;5015075;28;20470;-76
2021/07/08 09:26:43;;;;;;;2.63;1.97;;;31.80;47.60;;;;;;5012484;28;20511;-75
2021/07/08 09:29:12;;;;;;;4.53;1.67;;;31.80;47.40;;;;;;5012570;28;20497;-75
2021/07/08 09:31:41;;;;;;;4.23;1.80;;;31.80;47.40;;;;;;5005093;28;20516;-75
2021/07/08 09:34:16;;;;;;;2.63;1.77;;;31.90;47.20;;;;;;5009982;28;20471;-75
2021/07/08 09:36:44;;;;;;;4.40;2.00;;;31.90;47.10;;;;;;5024597;28;20518;-75
2021/07/08 09:39:13;;;;;;;2.03;1.90;;;31.90;47.20;;;;;;5006940;28;20460;-76
2021/07/08 09:41:49;;;;;;;1.90;1.80;;;32.00;47.00;;;;;;5005081;28;20415;-77
2021/07/08 09:44:21;;;;;;;1.77;1.67;;;32.00;47.00;;;;;;5005520;28;20490;-76
2021/07/08 09:46:51;;;;;;;3.10;2.03;;;32.10;46.90;;;;;;5005104;28;20498;-75
2021/07/08 09:49:19;;;;;;;4.17;1.80;;;32.00;46.90;;;;;;5015744;28;20434;-78
2021/07/08 09:51:48;;;;;;;3.80;1.50;;;32.10;46.90;;;;;;5044087;28;20426;-78
2021/07/08 09:54:19;;;;;;;2.60;1.63;;;32.10;46.70;;;;;;5044580;28;20462;-75
2021/07/08 09:56:48;;;;;;;2.30;2.00;;;32.20;46.70;;;;;;5028822;28;20448;-76
2021/07/08 09:59:19;;;;;;;1.60;1.50;;;32.30;46.50;;;;;;5016256;28;20489;-77
2021/07/08 10:01:57;;;;;;;3.17;1.70;;;32.30;46.30;;;;;;5025286;28;20475;-79
2021/07/08 10:04:26;;;;;;;3.03;1.70;;;32.40;46.30;;;;;;5024540;28;20489;-78
2021/07/08 10:06:56;;;;;;;1.90;1.70;;;32.50;46.20;;;;;;5024360;28;20455;-77
2021/07/08 10:09:24;;;;;;;2.10;1.90;;;32.50;46.00;;;;;;5024550;28;20466;-77
2021/07/08 10:11:54;;;;;;;2.20;1.80;;;32.60;46.00;;;;;;5024041;28;20530;-75
2021/07/08 10:14:22;;;;;;;5.40;1.90;;;32.70;45.90;;;;;;5011015;28;20468;-77
2021/07/08 10:16:51;;;;;;;1.67;1.57;;;32.80;45.60;;;;;;5004902;28;20444;-76
2021/07/08 10:19:21;;;;;;;1.80;1.40;;;32.80;45.40;;;;;;5004205;28;20440;-77
2021/07/08 10:21:50;;;;;;;2.67;1.60;;;32.90;45.30;;;;;;5004807;28;20479;-76
2021/07/08 10:24:21;;;;;;;1.60;1.50;;;33.10;45.70;;;;;;5004746;28;20440;-76
2021/07/08 10:26:49;;;;;;;1.67;1.57;;;33.20;44.80;;;;;;5004885;28;20471;-76
2021/07/08 10:29:17;;;;;;;1.70;1.60;;;33.10;44.80;;;;;;5004884;28;20547;-76
2021/07/08 10:31:48;;;;;;;5.13;1.93;;;33.10;44.60;;;;;;5004247;28;20428;-75
2021/07/08 10:34:16;;;;;;;4.47;1.80;;;32.90;44.90;;;;;;5004275;28;20464;-75
2021/07/08 10:36:47;;;;;;;2.33;1.47;;;32.80;45.30;;;;;;5004580;28;20444;-76
2021/07/08 10:39:16;;;;;;;1.57;1.30;;;32.90;45.60;;;;;;5004080;28;20472;-78
2021/07/08 10:41:55;;;;;;;1.70;1.60;;;33.10;45.30;;;;;;5004668;28;20444;-78
2021/07/08 10:44:40;;;;;;;4.00;1.80;;;33.20;44.90;;;;;;5004011;28;20510;-78
2021/07/08 10:47:23;;;;;;;1.87;1.40;;;33.30;44.40;;;;;;5004750;28;20464;-76
2021/07/08 10:49:51;;;;;;;1.60;1.50;;;33.30;44.80;;;;;;5026329;28;20445;-76
2021/07/08 10:52:45;;;;;;;2.00;1.50;;;33.30;44.50;;;;;;5047867;28;20503;-76
2021/07/08 10:55:32;;;;;;;1.97;1.87;;;33.20;44.60;;;;;;5047950;28;20570;-75
2021/07/08 10:58:02;;;;;;;2.03;1.50;;;33.00;44.80;;;;;;5034069;28;20435;-75
2021/07/08 11:00:43;;;;;;;4.37;1.80;;;32.90;45.10;;;;;;5021894;28;20450;-76
2021/07/08 11:03:39;;;;;;;2.80;1.80;;;32.80;45.30;;;;;;5024332;28;20434;-75
2021/07/08 11:06:20;;;;;;;15.53;2.20;;;32.80;45.80;;;;;;5018644;28;20456;-75
2021/07/08 11:09:01;;;;;;;1.40;1.40;;;32.80;45.50;;;;;;5020876;28;20459;-74
2021/07/08 11:12:04;;;;;;;1.43;1.33;;;32.80;45.40;;;;;;5023951;28;20517;-74
2021/07/08 11:14:36;;;;;;;2.17;1.50;;;32.80;45.40;;;;;;5016574;28;20506;-74
2021/07/08 11:17:17;;;;;;;3.73;1.57;;;32.70;45.70;;;;;;5014390;28;20483;-74
2021/07/08 11:19:51;;;;;;;3.37;1.90;;;32.60;45.80;;;;;;5024972;28;20467;-74
2021/07/08 11:22:40;;;;;;;2.03;1.50;;;32.60;46.00;;;;;;5012112;28;20547;-74
2021/07/08 11:25:10;;;;;;;2.90;1.70;;;32.70;45.90;;;;;;5019742;28;20447;-74
2021/07/08 11:27:43;;;;;;;5.33;1.90;;;33.10;46.10;;;;;;5012853;28;20448;-74
2021/07/08 11:30:30;;;;;;;7.10;2.23;;;33.80;44.20;;;;;;5019473;28;20455;-74
2021/07/08 11:33:06;;;;;;;1.73;1.57;;;35.10;43.60;;;;;;5012708;28;20700;-74
2021/07/08 11:35:36;;;;;;;7.40;1.97;;;36.30;41.30;;;;;;5016367;28;20478;-74
2021/07/08 11:38:06;;;;;;;1.50;1.40;;;37.20;39.60;;;;;;5021814;28;20505;-74
2021/07/08 11:40:42;;;;;;;2.60;1.77;;;37.80;38.40;;;;;;5014794;28;20486;-76
2021/07/08 11:43:21;;;;;;;2.27;2.10;;;37.30;36.70;;;;;;5017591;28;20427;-77
2021/07/08 11:45:50;;;;;;;8.60;2.03;;;36.90;36.20;;;;;;5012881;28;20498;-75
2021/07/08 11:48:29;;;;;;;5.47;1.93;;;36.70;36.40;;;;;;5021710;28;20459;-76
2021/07/08 11:50:57;;;;;;;3.13;1.77;;;36.60;35.70;;;;;;5020137;28;20486;-76
2021/07/08 11:53:26;;;;;;;5.53;1.90;;;36.60;34.30;;;;;;5020663;28;20462;-76
2021/07/08 11:55:56;;;;;;;2.77;1.90;;;36.10;36.10;;;;;;5021554;28;20483;-76
2021/07/08 11:58:26;;;;;;;1.90;1.80;;;36.10;35.30;;;;;;5010441;28;20536;-76
2021/07/08 12:00:54;;;;;;;3.43;1.97;;;35.80;36.10;;;;;;5005828;28;20467;-76
2021/07/08 12:03:27;;;;;;;2.30;2.10;;;35.10;35.60;;;;;;5007179;28;20452;-75
2021/07/08 12:06:00;;;;;;;2.30;2.10;;;34.50;37.80;;;;;;5006892;28;20465;-76
2021/07/08 12:08:29;;;;;;;5.67;2.73;;;34.50;37.80;;;;;;5006662;28;20528;-76
2021/07/08 12:11:11;;;;;;;2.80;2.60;;;34.60;37.00;;;;;;5006519;28;20433;-76
2021/07/08 12:13:46;;;;;;;3.87;3.37;;;34.80;36.70;;;;;;5006887;28;20522;-77
2021/07/08 12:16:14;;;;;;;3.80;3.50;;;34.70;36.60;;;;;;5006666;28;20480;-76
2021/07/08 12:18:45;;;;;;;7.17;6.20;;;34.70;36.20;;;;;;5006698;28;20469;-76
2021/07/08 12:21:24;;;;;;;9.80;8.90;;;34.40;35.80;;;;;;5006496;28;20428;-77
2021/07/08 12:23:52;;;;;;;5.90;5.40;;;34.50;35.80;;;;;;5006733;28;20479;-77
2021/07/08 12:26:26;;;;;;;6.33;5.70;;;34.50;35.10;;;;;;5006497;28;20587;-76
2021/07/08 12:29:20;;;;;;;3.97;3.67;;;34.70;35.30;;;;;;5006168;28;20468;-76
2021/07/08 12:31:55;;;;;;;3.43;2.80;;;35.20;36.00;;;;;;5006250;28;20448;-76
2021/07/08 12:34:24;;;;;;;5.30;2.50;;;35.20;36.90;;;;;;5021209;28;20457;-76
2021/07/08 12:36:52;;;;;;;4.57;2.30;;;35.40;36.80;;;;;;5026417;28;20513;-76
2021/07/08 12:39:25;;;;;;;4.33;2.30;;;35.20;35.50;;;;;;5026378;28;20435;-76
2021/07/08 12:41:55;;;;;;;5.33;2.33;;;35.20;35.00;;;;;;5026058;28;20519;-78
2021/07/08 12:44:23;;;;;;;6.90;2.00;;;35.10;34.90;;;;;;5025671;28;20513;-80
2021/07/08 12:46:58;;;;;;;2.00;1.83;;;35.20;33.30;;;;;;5026336;28;20436;-79
2021/07/08 12:49:27;;;;;;;1.80;1.67;;;35.20;32.40;;;;;;5031822;28;20430;-77
2021/07/08 12:51:54;;;;;;;2.87;1.90;;;35.40;31.80;;;;;;5045420;28;20516;-77
2021/07/08 12:54:25;;;;;;;3.93;1.60;;;35.60;31.60;;;;;;5045729;28;20522;-77
2021/07/08 12:57:04;;;;;;;2.07;1.97;;;35.70;31.30;;;;;;5036974;28;20586;-77
2021/07/08 12:59:32;;;;;;;4.17;3.10;;;35.80;31.40;;;;;;5025503;28;20538;-77
2021/07/08 13:02:00;;;;;;;4.40;4.00;;;36.00;31.80;;;;;;5025562;28;20537;-77